ヌメア の空港の天気 - METARとTAF

ヌメア国際空港 ( NWWW / NOU ) - ニューカレドニア ヌメア
飛行場実況気象(Metar)
観測時間07/15 21:30 NCT (07/15 10:30 UTC)
風向・風速北西 2m/s
視程-
天気現象
全天を覆う雲 雲底高度 490m
気温21℃
湿度94%
気圧1012hPa
METARNWWW 151030Z AUTO 32003KT //// R11///// // OVC016/// ///CB 21/20 Q1012
過去の天気等 Google飛行場航空写真 Wunderground天気予報

過去48時間のMETAR

飛行場予報(TAF)
発表時間: 7/15 16:00 NCT (7/15 05:00 UTC)
予報対象時間: 15日17時 NCT ~ 16日17時 NCT
風向・風速南西 3m/s
視程10km以上
全天の4割程度の雲 雲底高度 610m
全天の4割程度の雲 雲底高度 1520m
15日17時 NCT ~ 15日21時 NCT に一時的に
視程4000m
天気現象
全天の8割程度の雲 雲底高度 270m
15日23時 NCT ~ 16日7時 NCT に 確率 40% で一時的に
視程2000m
天気現象もや
TAF NWWW 150500Z 1506/1606 22005KT 9999 SCT020 SCT050
TEMPO 1506/1510 4000 RA BKN009
PROB40 TEMPO 1512/1520 2000 BR